sensor_id;sensor_type;location;lat;lon;timestamp;pressure;altitude;pressure_sealevel;temperature;humidity
32759;BME280;19125;52.360;9.974;2024-01-06T00:00:13;-15010.44;;;-145.17;81.40
32759;BME280;19125;52.360;9.974;2024-01-06T00:02:40;-15010.44;;;-145.17;81.74
32759;BME280;19125;52.360;9.974;2024-01-06T00:05:05;-15010.44;;;-145.17;81.69
32759;BME280;19125;52.360;9.974;2024-01-06T00:07:31;-15010.44;;;-145.17;81.43
32759;BME280;19125;52.360;9.974;2024-01-06T00:09:56;-15010.44;;;-145.17;81.36
32759;BME280;19125;52.360;9.974;2024-01-06T00:12:21;-15010.44;;;-145.17;81.55
32759;BME280;19125;52.360;9.974;2024-01-06T00:14:47;-15010.44;;;-145.17;81.63
32759;BME280;19125;52.360;9.974;2024-01-06T00:17:13;-15010.44;;;-145.17;81.79
32759;BME280;19125;52.360;9.974;2024-01-06T00:19:39;-15010.44;;;-145.17;81.19
32759;BME280;19125;52.360;9.974;2024-01-06T00:22:04;-15010.44;;;-145.17;81.35
32759;BME280;19125;52.360;9.974;2024-01-06T00:24:29;-15010.44;;;-145.17;81.54
32759;BME280;19125;52.360;9.974;2024-01-06T00:26:55;-15010.44;;;-145.17;81.21
32759;BME280;19125;52.360;9.974;2024-01-06T00:29:20;-15010.44;;;-145.17;81.33
32759;BME280;19125;52.360;9.974;2024-01-06T00:31:45;-15010.44;;;-145.17;81.63
32759;BME280;19125;52.360;9.974;2024-01-06T00:34:11;-15010.44;;;-145.17;81.47
32759;BME280;19125;52.360;9.974;2024-01-06T00:36:36;-15010.44;;;-145.17;81.67
32759;BME280;19125;52.360;9.974;2024-01-06T00:39:01;-15010.44;;;-145.17;81.55
32759;BME280;19125;52.360;9.974;2024-01-06T00:41:29;-15010.44;;;-145.17;81.25
32759;BME280;19125;52.360;9.974;2024-01-06T00:43:54;-15010.44;;;-145.17;81.11
32759;BME280;19125;52.360;9.974;2024-01-06T00:46:19;-15010.44;;;-145.17;81.44
32759;BME280;19125;52.360;9.974;2024-01-06T00:48:45;-15010.44;;;-145.17;81.35
32759;BME280;19125;52.360;9.974;2024-01-06T00:51:10;-15010.44;;;-145.17;81.15
32759;BME280;19125;52.360;9.974;2024-01-06T00:53:35;-15010.44;;;-145.17;81.29
32759;BME280;19125;52.360;9.974;2024-01-06T00:56:01;-15010.44;;;-145.17;81.15
32759;BME280;19125;52.360;9.974;2024-01-06T00:58:26;-15010.44;;;-145.17;81.24
32759;BME280;19125;52.360;9.974;2024-01-06T01:00:51;-15010.44;;;-145.17;81.30
32759;BME280;19125;52.360;9.974;2024-01-06T01:03:17;-15010.44;;;-145.17;81.04
32759;BME280;19125;52.360;9.974;2024-01-06T01:05:42;-15010.44;;;-145.17;81.48
32759;BME280;19125;52.360;9.974;2024-01-06T01:08:07;-15010.44;;;-145.17;81.40
32759;BME280;19125;52.360;9.974;2024-01-06T01:10:33;-15010.44;;;-145.17;81.25
32759;BME280;19125;52.360;9.974;2024-01-06T01:12:58;-15010.44;;;-145.17;81.36
32759;BME280;19125;52.360;9.974;2024-01-06T01:15:23;-15010.44;;;-145.17;81.52
32759;BME280;19125;52.360;9.974;2024-01-06T01:17:49;-15010.44;;;-145.17;81.31
32759;BME280;19125;52.360;9.974;2024-01-06T01:20:14;-15010.44;;;-145.17;81.21
32759;BME280;19125;52.360;9.974;2024-01-06T01:22:39;-15010.44;;;-145.17;81.02
32759;BME280;19125;52.360;9.974;2024-01-06T01:25:05;-15010.44;;;-145.17;81.33
32759;BME280;19125;52.360;9.974;2024-01-06T01:27:33;-15010.44;;;-145.17;81.41
32759;BME280;19125;52.360;9.974;2024-01-06T01:29:59;-15010.44;;;-145.17;81.02
32759;BME280;19125;52.360;9.974;2024-01-06T01:32:24;-15010.44;;;-145.17;81.15
32759;BME280;19125;52.360;9.974;2024-01-06T01:34:49;-15010.44;;;-145.17;81.24
32759;BME280;19125;52.360;9.974;2024-01-06T01:37:15;-15010.44;;;-145.17;81.13
32759;BME280;19125;52.360;9.974;2024-01-06T01:39:40;-15010.44;;;-145.17;81.18
32759;BME280;19125;52.360;9.974;2024-01-06T01:42:06;-15010.44;;;-145.17;81.29
32759;BME280;19125;52.360;9.974;2024-01-06T01:44:31;-15010.44;;;-145.17;81.31
32759;BME280;19125;52.360;9.974;2024-01-06T01:46:56;-15010.44;;;-145.17;81.42
32759;BME280;19125;52.360;9.974;2024-01-06T01:49:22;-15010.44;;;-145.17;80.90
32759;BME280;19125;52.360;9.974;2024-01-06T01:51:48;-15010.44;;;-145.17;81.14
32759;BME280;19125;52.360;9.974;2024-01-06T01:54:14;-15010.44;;;-145.17;81.02
32759;BME280;19125;52.360;9.974;2024-01-06T01:56:41;-15010.44;;;-145.17;81.21
32759;BME280;19125;52.360;9.974;2024-01-06T01:59:14;-15010.44;;;-145.17;80.96
32759;BME280;19125;52.360;9.974;2024-01-06T02:01:42;-15010.44;;;-145.17;80.87
32759;BME280;19125;52.360;9.974;2024-01-06T02:04:08;-15010.44;;;-145.17;80.94
32759;BME280;19125;52.360;9.974;2024-01-06T02:06:34;-15010.44;;;-145.17;81.23
32759;BME280;19125;52.360;9.974;2024-01-06T02:08:59;-15010.44;;;-145.17;81.27
32759;BME280;19125;52.360;9.974;2024-01-06T02:11:25;-15010.44;;;-145.17;80.90
32759;BME280;19125;52.360;9.974;2024-01-06T02:13:50;-15010.44;;;-145.17;81.33
32759;BME280;19125;52.360;9.974;2024-01-06T02:16:16;-15010.44;;;-145.17;81.10
32759;BME280;19125;52.360;9.974;2024-01-06T02:18:41;-15010.44;;;-145.17;80.91
32759;BME280;19125;52.360;9.974;2024-01-06T02:21:07;-15010.44;;;-145.17;81.27
32759;BME280;19125;52.360;9.974;2024-01-06T02:23:34;-15010.44;;;-145.17;80.82
32759;BME280;19125;52.360;9.974;2024-01-06T02:26:00;-15010.44;;;-145.17;81.06
32759;BME280;19125;52.360;9.974;2024-01-06T02:28:26;-15010.44;;;-145.17;80.75
32759;BME280;19125;52.360;9.974;2024-01-06T02:30:51;-15010.44;;;-145.17;80.83
32759;BME280;19125;52.360;9.974;2024-01-06T02:33:16;-15010.44;;;-145.17;80.93
32759;BME280;19125;52.360;9.974;2024-01-06T02:35:45;-15010.44;;;-145.17;80.94
32759;BME280;19125;52.360;9.974;2024-01-06T02:38:10;-15010.44;;;-145.17;80.72
32759;BME280;19125;52.360;9.974;2024-01-06T02:40:38;-15010.44;;;-145.17;80.73
32759;BME280;19125;52.360;9.974;2024-01-06T02:43:03;-15010.44;;;-145.17;80.89
32759;BME280;19125;52.360;9.974;2024-01-06T02:45:29;-15010.44;;;-145.17;80.84
32759;BME280;19125;52.360;9.974;2024-01-06T02:47:54;-15010.44;;;-145.17;81.22
32759;BME280;19125;52.360;9.974;2024-01-06T02:50:19;-15010.44;;;-145.17;81.08
32759;BME280;19125;52.360;9.974;2024-01-06T02:52:45;-15010.44;;;-145.17;80.96
32759;BME280;19125;52.360;9.974;2024-01-06T02:55:13;-15010.44;;;-145.17;81.29
32759;BME280;19125;52.360;9.974;2024-01-06T02:57:38;-15010.44;;;-145.17;81.05
32759;BME280;19125;52.360;9.974;2024-01-06T03:00:05;-15010.44;;;-145.17;80.74
32759;BME280;19125;52.360;9.974;2024-01-06T03:02:30;-15010.44;;;-145.17;81.17
32759;BME280;19125;52.360;9.974;2024-01-06T03:04:55;-15010.44;;;-145.17;80.80
32759;BME280;19125;52.360;9.974;2024-01-06T03:07:21;-15010.44;;;-145.17;80.61
32759;BME280;19125;52.360;9.974;2024-01-06T03:09:47;-15010.44;;;-145.17;80.99
32759;BME280;19125;52.360;9.974;2024-01-06T03:12:12;-15010.44;;;-145.17;80.76
32759;BME280;19125;52.360;9.974;2024-01-06T03:14:38;-15010.44;;;-145.17;80.81
32759;BME280;19125;52.360;9.974;2024-01-06T03:17:04;-15010.44;;;-145.17;80.98
32759;BME280;19125;52.360;9.974;2024-01-06T03:19:32;-15010.44;;;-145.17;81.05
32759;BME280;19125;52.360;9.974;2024-01-06T03:21:58;-15010.44;;;-145.17;80.86
32759;BME280;19125;52.360;9.974;2024-01-06T03:24:25;-15010.44;;;-145.17;80.88
32759;BME280;19125;52.360;9.974;2024-01-06T03:26:50;-15010.44;;;-145.17;81.11
32759;BME280;19125;52.360;9.974;2024-01-06T03:29:16;-15010.44;;;-145.17;81.05
32759;BME280;19125;52.360;9.974;2024-01-06T03:31:42;-15010.44;;;-145.17;80.71
32759;BME280;19125;52.360;9.974;2024-01-06T03:34:08;-15010.44;;;-145.17;80.86
32759;BME280;19125;52.360;9.974;2024-01-06T03:36:34;-15010.44;;;-145.17;80.86
32759;BME280;19125;52.360;9.974;2024-01-06T03:38:59;-15010.44;;;-145.17;80.67
32759;BME280;19125;52.360;9.974;2024-01-06T03:41:25;-15010.44;;;-145.17;80.58
32759;BME280;19125;52.360;9.974;2024-01-06T03:43:50;-15010.44;;;-145.17;81.00
32759;BME280;19125;52.360;9.974;2024-01-06T03:46:16;-15010.44;;;-145.17;80.99
32759;BME280;19125;52.360;9.974;2024-01-06T03:48:41;-15010.44;;;-145.17;80.70
32759;BME280;19125;52.360;9.974;2024-01-06T03:51:07;-15010.44;;;-145.17;81.00
32759;BME280;19125;52.360;9.974;2024-01-06T03:53:32;-15010.44;;;-145.17;80.75
32759;BME280;19125;52.360;9.974;2024-01-06T03:55:57;-15010.44;;;-145.17;80.93
32759;BME280;19125;52.360;9.974;2024-01-06T03:58:23;-15010.44;;;-145.17;80.92
32759;BME280;19125;52.360;9.974;2024-01-06T04:00:48;-15010.44;;;-145.17;80.46
32759;BME280;19125;52.360;9.974;2024-01-06T04:03:13;-15010.44;;;-145.17;80.75
32759;BME280;19125;52.360;9.974;2024-01-06T04:05:39;-15010.44;;;-145.17;80.90
32759;BME280;19125;52.360;9.974;2024-01-06T04:08:04;-15010.44;;;-145.17;80.98
32759;BME280;19125;52.360;9.974;2024-01-06T04:10:30;-15010.44;;;-145.17;80.97
32759;BME280;19125;52.360;9.974;2024-01-06T04:12:55;-15010.44;;;-145.17;80.93
32759;BME280;19125;52.360;9.974;2024-01-06T04:15:20;-15010.44;;;-145.17;80.67
32759;BME280;19125;52.360;9.974;2024-01-06T04:17:49;-15010.44;;;-145.17;81.19
32759;BME280;19125;52.360;9.974;2024-01-06T04:20:14;-15010.44;;;-145.17;80.94
32759;BME280;19125;52.360;9.974;2024-01-06T04:22:39;-15010.44;;;-145.17;80.71
32759;BME280;19125;52.360;9.974;2024-01-06T04:25:05;-15010.44;;;-145.17;80.73
32759;BME280;19125;52.360;9.974;2024-01-06T04:27:30;-15010.44;;;-145.17;80.70
32759;BME280;19125;52.360;9.974;2024-01-06T04:29:56;-15010.44;;;-145.17;80.92
32759;BME280;19125;52.360;9.974;2024-01-06T04:32:21;-15010.44;;;-145.17;80.83
32759;BME280;19125;52.360;9.974;2024-01-06T04:34:47;-15010.44;;;-145.17;80.38
32759;BME280;19125;52.360;9.974;2024-01-06T04:37:12;-15010.44;;;-145.17;81.17
32759;BME280;19125;52.360;9.974;2024-01-06T04:39:38;-15010.44;;;-145.17;81.02
32759;BME280;19125;52.360;9.974;2024-01-06T04:42:04;-15010.44;;;-145.17;80.69
32759;BME280;19125;52.360;9.974;2024-01-06T04:44:30;-15010.44;;;-145.17;80.88
32759;BME280;19125;52.360;9.974;2024-01-06T04:46:56;-15010.44;;;-145.17;80.58
32759;BME280;19125;52.360;9.974;2024-01-06T04:49:21;-15010.44;;;-145.17;80.61
32759;BME280;19125;52.360;9.974;2024-01-06T04:51:47;-15010.44;;;-145.17;81.03
32759;BME280;19125;52.360;9.974;2024-01-06T04:54:13;-15010.44;;;-145.17;80.83
32759;BME280;19125;52.360;9.974;2024-01-06T04:56:38;-15010.44;;;-145.17;80.91
32759;BME280;19125;52.360;9.974;2024-01-06T04:59:04;-15010.44;;;-145.17;80.84
32759;BME280;19125;52.360;9.974;2024-01-06T05:01:30;-15010.44;;;-145.17;80.96
32759;BME280;19125;52.360;9.974;2024-01-06T05:03:55;-15010.44;;;-145.17;80.59
32759;BME280;19125;52.360;9.974;2024-01-06T05:06:20;-15010.44;;;-145.17;80.69
32759;BME280;19125;52.360;9.974;2024-01-06T05:08:46;-15010.44;;;-145.17;80.96
32759;BME280;19125;52.360;9.974;2024-01-06T05:11:11;-15010.44;;;-145.17;80.73
32759;BME280;19125;52.360;9.974;2024-01-06T05:13:37;-15010.44;;;-145.17;80.91
32759;BME280;19125;52.360;9.974;2024-01-06T05:16:03;-15010.44;;;-145.17;81.08
32759;BME280;19125;52.360;9.974;2024-01-06T05:18:28;-15010.44;;;-145.17;80.52
32759;BME280;19125;52.360;9.974;2024-01-06T05:20:54;-15010.44;;;-145.17;80.82
32759;BME280;19125;52.360;9.974;2024-01-06T05:23:20;-15010.44;;;-145.17;80.69
32759;BME280;19125;52.360;9.974;2024-01-06T05:25:45;-15010.44;;;-145.17;80.69
32759;BME280;19125;52.360;9.974;2024-01-06T05:28:11;-15010.44;;;-145.17;81.08
32759;BME280;19125;52.360;9.974;2024-01-06T05:30:36;-15010.44;;;-145.17;81.07
32759;BME280;19125;52.360;9.974;2024-01-06T05:33:01;-15010.44;;;-145.17;80.84
32759;BME280;19125;52.360;9.974;2024-01-06T05:35:27;-15010.44;;;-145.17;80.70
32759;BME280;19125;52.360;9.974;2024-01-06T05:37:53;-15010.44;;;-145.17;80.56
32759;BME280;19125;52.360;9.974;2024-01-06T05:40:18;-15010.44;;;-145.17;80.75
32759;BME280;19125;52.360;9.974;2024-01-06T05:42:43;-15010.44;;;-145.17;80.59
32759;BME280;19125;52.360;9.974;2024-01-06T05:45:12;-15010.44;;;-145.17;80.65
32759;BME280;19125;52.360;9.974;2024-01-06T05:47:38;-15010.44;;;-145.17;80.81
32759;BME280;19125;52.360;9.974;2024-01-06T05:50:04;-15010.44;;;-145.17;80.50
32759;BME280;19125;52.360;9.974;2024-01-06T05:52:29;-15010.44;;;-145.17;80.55
32759;BME280;19125;52.360;9.974;2024-01-06T05:54:54;-15010.44;;;-145.17;80.52
32759;BME280;19125;52.360;9.974;2024-01-06T05:57:20;-15010.44;;;-145.17;80.62
32759;BME280;19125;52.360;9.974;2024-01-06T05:59:45;-15010.44;;;-145.17;80.78
32759;BME280;19125;52.360;9.974;2024-01-06T06:02:11;-15010.44;;;-145.17;81.05
32759;BME280;19125;52.360;9.974;2024-01-06T06:04:36;-15010.44;;;-145.17;80.87
32759;BME280;19125;52.360;9.974;2024-01-06T06:07:01;-15010.44;;;-145.17;80.93
32759;BME280;19125;52.360;9.974;2024-01-06T06:09:27;-15010.44;;;-145.17;81.26
32759;BME280;19125;52.360;9.974;2024-01-06T06:11:53;-15010.44;;;-145.17;80.90
32759;BME280;19125;52.360;9.974;2024-01-06T06:14:19;-15010.44;;;-145.17;81.07
32759;BME280;19125;52.360;9.974;2024-01-06T06:16:44;-15010.44;;;-145.17;80.84
32759;BME280;19125;52.360;9.974;2024-01-06T06:19:10;-15010.44;;;-145.17;81.00
32759;BME280;19125;52.360;9.974;2024-01-06T06:21:35;-15010.44;;;-145.17;81.00
32759;BME280;19125;52.360;9.974;2024-01-06T06:24:01;-15010.44;;;-145.17;81.21
32759;BME280;19125;52.360;9.974;2024-01-06T06:26:27;-15010.44;;;-145.17;81.14
32759;BME280;19125;52.360;9.974;2024-01-06T06:28:53;-15010.44;;;-145.17;81.00
32759;BME280;19125;52.360;9.974;2024-01-06T06:31:19;-15010.44;;;-145.17;80.94
32759;BME280;19125;52.360;9.974;2024-01-06T06:33:44;-15010.44;;;-145.17;80.86
32759;BME280;19125;52.360;9.974;2024-01-06T06:36:10;-15010.44;;;-145.17;80.73
32759;BME280;19125;52.360;9.974;2024-01-06T06:38:36;-15010.44;;;-145.17;80.84
32759;BME280;19125;52.360;9.974;2024-01-06T06:41:01;-15010.44;;;-145.17;81.20
32759;BME280;19125;52.360;9.974;2024-01-06T06:43:27;-15010.44;;;-145.17;80.77
32759;BME280;19125;52.360;9.974;2024-01-06T06:45:52;-15010.44;;;-145.17;80.79
32759;BME280;19125;52.360;9.974;2024-01-06T06:48:18;-15010.44;;;-145.17;80.83
32759;BME280;19125;52.360;9.974;2024-01-06T06:50:43;-15010.44;;;-145.17;81.35
32759;BME280;19125;52.360;9.974;2024-01-06T06:53:09;-15010.44;;;-145.17;80.73
32759;BME280;19125;52.360;9.974;2024-01-06T06:55:34;-15010.44;;;-145.17;81.27
32759;BME280;19125;52.360;9.974;2024-01-06T06:58:00;-15010.44;;;-145.17;80.86
32759;BME280;19125;52.360;9.974;2024-01-06T07:00:25;-15010.44;;;-145.17;80.84
32759;BME280;19125;52.360;9.974;2024-01-06T07:02:50;-15010.44;;;-145.17;80.76
32759;BME280;19125;52.360;9.974;2024-01-06T07:05:16;-15010.44;;;-145.17;81.09
32759;BME280;19125;52.360;9.974;2024-01-06T07:07:42;-15010.44;;;-145.17;80.73
32759;BME280;19125;52.360;9.974;2024-01-06T07:10:12;-15010.44;;;-145.17;81.12
32759;BME280;19125;52.360;9.974;2024-01-06T07:12:37;-15010.44;;;-145.17;81.04
32759;BME280;19125;52.360;9.974;2024-01-06T07:15:03;-15010.44;;;-145.17;80.96
32759;BME280;19125;52.360;9.974;2024-01-06T07:17:28;-15010.44;;;-145.17;81.17
32759;BME280;19125;52.360;9.974;2024-01-06T07:19:54;-15010.44;;;-145.17;81.33
32759;BME280;19125;52.360;9.974;2024-01-06T07:22:19;-15010.44;;;-145.17;80.92
32759;BME280;19125;52.360;9.974;2024-01-06T07:24:45;-15010.44;;;-145.17;80.92
32759;BME280;19125;52.360;9.974;2024-01-06T07:27:10;-15010.44;;;-145.17;81.27
32759;BME280;19125;52.360;9.974;2024-01-06T07:29:36;-15010.44;;;-145.17;81.01
32759;BME280;19125;52.360;9.974;2024-01-06T07:32:02;-15010.44;;;-145.17;80.75
32759;BME280;19125;52.360;9.974;2024-01-06T07:34:27;-15010.44;;;-145.17;81.23
32759;BME280;19125;52.360;9.974;2024-01-06T07:36:53;-15010.44;;;-145.17;81.23
32759;BME280;19125;52.360;9.974;2024-01-06T07:39:18;-15010.44;;;-145.17;81.25
32759;BME280;19125;52.360;9.974;2024-01-06T07:41:43;-15010.44;;;-145.17;80.83
32759;BME280;19125;52.360;9.974;2024-01-06T07:44:10;-15010.44;;;-145.17;80.98
32759;BME280;19125;52.360;9.974;2024-01-06T07:46:35;-15010.44;;;-145.17;80.95
32759;BME280;19125;52.360;9.974;2024-01-06T07:49:02;-15010.44;;;-145.17;80.92
32759;BME280;19125;52.360;9.974;2024-01-06T07:51:27;-15010.44;;;-145.17;81.02
32759;BME280;19125;52.360;9.974;2024-01-06T07:53:52;-15010.44;;;-145.17;81.21
32759;BME280;19125;52.360;9.974;2024-01-06T07:56:18;-15010.44;;;-145.17;81.14
32759;BME280;19125;52.360;9.974;2024-01-06T07:58:43;-15010.44;;;-145.17;81.17
32759;BME280;19125;52.360;9.974;2024-01-06T08:01:08;-15010.44;;;-145.17;81.41
32759;BME280;19125;52.360;9.974;2024-01-06T08:03:34;-15010.44;;;-145.17;81.52
32759;BME280;19125;52.360;9.974;2024-01-06T08:05:59;-15010.44;;;-145.17;81.21
32759;BME280;19125;52.360;9.974;2024-01-06T08:08:26;-15010.44;;;-145.17;81.31
32759;BME280;19125;52.360;9.974;2024-01-06T08:10:51;-15010.44;;;-145.17;81.46
32759;BME280;19125;52.360;9.974;2024-01-06T08:13:17;-15010.44;;;-145.17;81.44
32759;BME280;19125;52.360;9.974;2024-01-06T08:15:42;-15010.44;;;-145.17;81.00
32759;BME280;19125;52.360;9.974;2024-01-06T08:18:07;-15010.44;;;-145.17;81.10
32759;BME280;19125;52.360;9.974;2024-01-06T08:20:33;-15010.44;;;-145.17;81.17
32759;BME280;19125;52.360;9.974;2024-01-06T08:22:58;-15010.44;;;-145.17;80.94
32759;BME280;19125;52.360;9.974;2024-01-06T08:25:26;-15010.44;;;-145.17;81.21
32759;BME280;19125;52.360;9.974;2024-01-06T08:27:52;-15010.44;;;-145.17;81.06
32759;BME280;19125;52.360;9.974;2024-01-06T08:30:18;-15010.44;;;-145.17;81.53
32759;BME280;19125;52.360;9.974;2024-01-06T08:32:44;-15010.44;;;-145.17;81.16
32759;BME280;19125;52.360;9.974;2024-01-06T08:35:09;-15010.44;;;-145.17;81.00
32759;BME280;19125;52.360;9.974;2024-01-06T08:37:35;-15010.44;;;-145.17;81.33
32759;BME280;19125;52.360;9.974;2024-01-06T08:40:00;-15010.44;;;-145.17;81.48
32759;BME280;19125;52.360;9.974;2024-01-06T08:42:26;-15010.44;;;-145.17;81.09
32759;BME280;19125;52.360;9.974;2024-01-06T08:44:51;-15010.44;;;-145.17;81.04
32759;BME280;19125;52.360;9.974;2024-01-06T08:47:16;-15010.44;;;-145.17;81.14
32759;BME280;19125;52.360;9.974;2024-01-06T08:49:42;-15010.44;;;-145.17;81.21
32759;BME280;19125;52.360;9.974;2024-01-06T08:52:07;-15010.44;;;-145.17;81.04
32759;BME280;19125;52.360;9.974;2024-01-06T08:54:33;-15010.44;;;-145.17;80.55
32759;BME280;19125;52.360;9.974;2024-01-06T08:56:58;-15010.44;;;-145.17;81.19
32759;BME280;19125;52.360;9.974;2024-01-06T08:59:23;-15010.44;;;-145.17;80.79
32759;BME280;19125;52.360;9.974;2024-01-06T09:01:49;-15010.44;;;-145.17;80.59
32759;BME280;19125;52.360;9.974;2024-01-06T09:04:14;-15010.44;;;-145.17;80.81
32759;BME280;19125;52.360;9.974;2024-01-06T09:06:40;-15010.44;;;-145.17;80.55
32759;BME280;19125;52.360;9.974;2024-01-06T09:09:07;-15010.44;;;-145.17;80.73
32759;BME280;19125;52.360;9.974;2024-01-06T09:11:33;-15010.44;;;-145.17;80.69
32759;BME280;19125;52.360;9.974;2024-01-06T09:13:58;-15010.44;;;-145.17;80.59
32759;BME280;19125;52.360;9.974;2024-01-06T09:16:23;-15010.44;;;-145.17;80.73
32759;BME280;19125;52.360;9.974;2024-01-06T09:18:49;-15010.44;;;-145.17;80.46
32759;BME280;19125;52.360;9.974;2024-01-06T09:21:14;-15010.44;;;-145.17;80.58
32759;BME280;19125;52.360;9.974;2024-01-06T09:23:40;-15010.44;;;-145.17;80.18
32759;BME280;19125;52.360;9.974;2024-01-06T09:26:05;-15010.44;;;-145.17;80.55
32759;BME280;19125;52.360;9.974;2024-01-06T09:28:31;-15010.44;;;-145.17;80.34
32759;BME280;19125;52.360;9.974;2024-01-06T09:30:56;-15010.44;;;-145.17;80.77
32759;BME280;19125;52.360;9.974;2024-01-06T09:33:22;-15010.44;;;-145.17;80.26
32759;BME280;19125;52.360;9.974;2024-01-06T09:35:48;-15010.44;;;-145.17;80.25
32759;BME280;19125;52.360;9.974;2024-01-06T09:38:13;-15010.44;;;-145.17;80.23
32759;BME280;19125;52.360;9.974;2024-01-06T09:40:44;-15010.44;;;-145.17;80.32
32759;BME280;19125;52.360;9.974;2024-01-06T09:43:10;-15010.44;;;-145.17;80.37
32759;BME280;19125;52.360;9.974;2024-01-06T09:45:37;-15010.44;;;-145.17;80.27
32759;BME280;19125;52.360;9.974;2024-01-06T09:48:12;-15010.44;;;-145.17;80.46
32759;BME280;19125;52.360;9.974;2024-01-06T09:50:41;-15010.44;;;-145.17;79.94
32759;BME280;19125;52.360;9.974;2024-01-06T09:53:10;-15010.44;;;-145.17;79.84
32759;BME280;19125;52.360;9.974;2024-01-06T09:55:36;-15010.44;;;-145.17;79.87
32759;BME280;19125;52.360;9.974;2024-01-06T09:58:02;-15010.44;;;-145.17;80.11
32759;BME280;19125;52.360;9.974;2024-01-06T10:00:27;-15010.44;;;-145.17;79.91
32759;BME280;19125;52.360;9.974;2024-01-06T10:02:53;-15010.44;;;-145.17;80.14
32759;BME280;19125;52.360;9.974;2024-01-06T10:05:20;-15010.44;;;-145.17;79.75
32759;BME280;19125;52.360;9.974;2024-01-06T10:07:46;-15010.44;;;-145.17;79.97
32759;BME280;19125;52.360;9.974;2024-01-06T10:10:12;-15010.44;;;-145.17;79.77
32759;BME280;19125;52.360;9.974;2024-01-06T10:12:39;-15010.44;;;-145.17;80.34
32759;BME280;19125;52.360;9.974;2024-01-06T10:15:09;-15010.44;;;-145.17;80.36
32759;BME280;19125;52.360;9.974;2024-01-06T10:17:40;-15010.44;;;-145.17;80.22
32759;BME280;19125;52.360;9.974;2024-01-06T10:20:12;-15010.44;;;-145.17;79.86
32759;BME280;19125;52.360;9.974;2024-01-06T10:22:42;-15010.44;;;-145.17;79.63
32759;BME280;19125;52.360;9.974;2024-01-06T10:25:09;-15010.44;;;-145.17;79.88
32759;BME280;19125;52.360;9.974;2024-01-06T10:27:38;-15010.44;;;-145.17;79.59
32759;BME280;19125;52.360;9.974;2024-01-06T10:30:06;-15010.44;;;-145.17;79.47
32759;BME280;19125;52.360;9.974;2024-01-06T10:32:35;-15010.44;;;-145.17;79.61
32759;BME280;19125;52.360;9.974;2024-01-06T10:35:02;-15010.44;;;-145.17;79.60
32759;BME280;19125;52.360;9.974;2024-01-06T10:37:28;-15010.44;;;-145.17;79.54
32759;BME280;19125;52.360;9.974;2024-01-06T10:40:17;-15010.44;;;-145.17;79.20
32759;BME280;19125;52.360;9.974;2024-01-06T10:42:43;-15010.44;;;-145.17;79.64
32759;BME280;19125;52.360;9.974;2024-01-06T10:45:11;-15010.44;;;-145.17;78.93
32759;BME280;19125;52.360;9.974;2024-01-06T10:47:38;-15010.44;;;-145.17;79.46
32759;BME280;19125;52.360;9.974;2024-01-06T10:50:04;-15010.44;;;-145.17;79.32
32759;BME280;19125;52.360;9.974;2024-01-06T10:52:30;-15010.44;;;-145.17;79.32
32759;BME280;19125;52.360;9.974;2024-01-06T10:54:56;-15010.44;;;-145.17;79.39
32759;BME280;19125;52.360;9.974;2024-01-06T10:57:22;-15010.44;;;-145.17;79.11
32759;BME280;19125;52.360;9.974;2024-01-06T10:59:52;-15010.44;;;-145.17;78.78
32759;BME280;19125;52.360;9.974;2024-01-06T11:02:18;-15010.44;;;-145.17;78.82
32759;BME280;19125;52.360;9.974;2024-01-06T11:04:48;-15010.44;;;-145.17;78.88
32759;BME280;19125;52.360;9.974;2024-01-06T11:07:15;-15010.44;;;-145.17;78.64
32759;BME280;19125;52.360;9.974;2024-01-06T11:09:47;-15010.44;;;-145.17;78.55
32759;BME280;19125;52.360;9.974;2024-01-06T11:12:16;-15010.44;;;-145.17;78.75
32759;BME280;19125;52.360;9.974;2024-01-06T11:14:42;-15010.44;;;-145.17;78.54
32759;BME280;19125;52.360;9.974;2024-01-06T11:17:07;-15010.44;;;-145.17;78.89
32759;BME280;19125;52.360;9.974;2024-01-06T11:22:24;-15010.44;;;-145.17;78.89
32759;BME280;19125;52.360;9.974;2024-01-06T11:24:51;-15010.44;;;-145.17;78.96
32759;BME280;19125;52.360;9.974;2024-01-06T11:27:23;-15010.44;;;-145.17;78.53
32759;BME280;19125;52.360;9.974;2024-01-06T11:29:51;-15010.44;;;-145.17;78.33
32759;BME280;19125;52.360;9.974;2024-01-06T11:34:53;-15010.44;;;-145.17;78.84
32759;BME280;19125;52.360;9.974;2024-01-06T11:37:23;-15010.44;;;-145.17;78.33
32759;BME280;19125;52.360;9.974;2024-01-06T11:39:50;-15010.44;;;-145.17;78.59
32759;BME280;19125;52.360;9.974;2024-01-06T11:42:15;-15010.44;;;-145.17;78.74
32759;BME280;19125;52.360;9.974;2024-01-06T11:44:44;-15010.44;;;-145.17;78.75
32759;BME280;19125;52.360;9.974;2024-01-06T11:47:11;-15010.44;;;-145.17;78.52
32759;BME280;19125;52.360;9.974;2024-01-06T11:49:37;-15010.44;;;-145.17;78.53
32759;BME280;19125;52.360;9.974;2024-01-06T11:52:03;-15010.44;;;-145.17;78.55
32759;BME280;19125;52.360;9.974;2024-01-06T11:54:29;-15010.44;;;-145.17;78.72
32759;BME280;19125;52.360;9.974;2024-01-06T11:56:54;-15010.44;;;-145.17;78.90
32759;BME280;19125;52.360;9.974;2024-01-06T11:59:21;-15010.44;;;-145.17;78.74
32759;BME280;19125;52.360;9.974;2024-01-06T12:01:46;-15010.44;;;-145.17;78.29
32759;BME280;19125;52.360;9.974;2024-01-06T12:04:15;-15010.44;;;-145.17;78.70
32759;BME280;19125;52.360;9.974;2024-01-06T12:06:41;-15010.44;;;-145.17;78.12
32759;BME280;19125;52.360;9.974;2024-01-06T12:09:07;-15010.44;;;-145.17;78.31
32759;BME280;19125;52.360;9.974;2024-01-06T12:11:33;-15010.44;;;-145.17;78.28
32759;BME280;19125;52.360;9.974;2024-01-06T12:13:58;-15010.44;;;-145.17;78.41
32759;BME280;19125;52.360;9.974;2024-01-06T12:16:24;-15010.44;;;-145.17;78.53
32759;BME280;19125;52.360;9.974;2024-01-06T12:18:53;-15010.44;;;-145.17;78.45
32759;BME280;19125;52.360;9.974;2024-01-06T12:21:22;-15010.44;;;-145.17;78.87
32759;BME280;19125;52.360;9.974;2024-01-06T12:23:47;-15010.44;;;-145.17;78.65
32759;BME280;19125;52.360;9.974;2024-01-06T12:26:13;-15010.44;;;-145.17;78.91
32759;BME280;19125;52.360;9.974;2024-01-06T12:28:38;-15010.44;;;-145.17;78.53